createdAt,value
2017-04-01T00:01:26.207Z,1006.42
2017-04-01T00:06:22.830Z,1006.38
2017-04-01T00:11:19.455Z,1006.30
2017-04-01T00:16:15.932Z,1006.35
2017-04-01T00:21:12.234Z,1006.33
2017-04-01T00:26:09.410Z,1006.29
2017-04-01T00:31:06.564Z,1006.30
2017-04-01T00:36:03.265Z,1006.24
2017-04-01T00:40:59.380Z,1006.18
2017-04-01T00:45:56.009Z,1006.13
2017-04-01T00:50:52.563Z,1006.15
2017-04-01T00:55:49.081Z,1006.07
2017-04-01T01:00:45.732Z,1006.10
2017-04-01T01:05:42.281Z,1006.06
2017-04-01T01:10:39.137Z,1006.05
2017-04-01T01:15:35.288Z,1006.04
2017-04-01T01:20:32.309Z,1006.11
2017-04-01T01:25:32.464Z,1006.11
2017-04-01T01:30:28.230Z,1006.01
2017-04-01T01:35:24.701Z,1005.91
2017-04-01T01:40:21.328Z,1005.96
2017-04-01T01:45:17.840Z,1005.95
2017-04-01T01:50:14.304Z,1006.00
2017-04-01T01:55:10.924Z,1006.00
2017-04-01T02:00:07.737Z,1005.98
2017-04-01T02:05:04.478Z,1005.91
2017-04-01T02:10:00.978Z,1005.91
2017-04-01T02:14:57.787Z,1005.91
2017-04-01T02:19:54.400Z,1005.79
2017-04-01T02:24:52.057Z,1005.77
2017-04-01T02:29:48.526Z,1005.76
2017-04-01T02:34:44.525Z,1005.69
2017-04-01T02:39:41.025Z,1005.68
2017-04-01T02:44:38.447Z,1005.67
2017-04-01T02:49:35.364Z,1005.62
2017-04-01T02:54:31.971Z,1005.65
2017-04-01T02:59:28.572Z,1005.57
2017-04-01T03:04:25.451Z,1005.70
2017-04-01T03:09:22.906Z,1005.60
2017-04-01T03:14:19.192Z,1005.53
2017-04-01T03:19:16.393Z,1005.46
2017-04-01T03:24:13.004Z,1005.48
2017-04-01T03:29:09.456Z,1005.36
2017-04-01T03:34:07.481Z,1005.46
2017-04-01T03:39:03.820Z,1005.42
2017-04-01T03:44:00.578Z,1005.44
2017-04-01T03:48:57.490Z,1005.26
2017-04-01T03:53:53.908Z,1005.29
2017-04-01T03:58:51.040Z,1005.31
2017-04-01T04:03:47.928Z,1005.25
2017-04-01T04:08:45.726Z,1005.27
2017-04-01T04:13:42.045Z,1005.36
2017-04-01T04:18:39.344Z,1005.29
2017-04-01T04:23:35.901Z,1005.29
2017-04-01T04:28:32.977Z,1005.32
2017-04-01T04:33:29.450Z,1005.36
2017-04-01T04:38:25.808Z,1005.39
2017-04-01T04:43:22.730Z,1005.31
2017-04-01T04:48:19.753Z,1005.31
2017-04-01T04:53:18.032Z,1005.34
2017-04-01T04:58:14.471Z,1005.40
2017-04-01T05:03:11.273Z,1005.26
2017-04-01T05:08:09.974Z,1005.30
2017-04-01T05:13:06.794Z,1005.27
2017-04-01T05:18:03.476Z,1005.20
2017-04-01T05:23:00.125Z,1005.18
2017-04-01T05:27:56.736Z,1005.21
2017-04-01T05:32:53.244Z,1005.14
2017-04-01T05:42:55.244Z,1005.20
2017-04-01T05:47:52.582Z,1005.26
2017-04-01T05:52:49.568Z,1005.28
2017-04-01T05:57:46.960Z,1005.34
2017-04-01T06:02:44.239Z,1005.31
2017-04-01T06:07:41.059Z,1005.20
2017-04-01T06:12:39.965Z,1005.26
2017-04-01T06:17:36.217Z,1005.35
2017-04-01T06:22:33.412Z,1005.31
2017-04-01T06:27:29.961Z,1005.36
2017-04-01T06:32:26.641Z,1005.28
2017-04-01T06:37:24.059Z,1005.37
2017-04-01T06:42:20.911Z,1005.21
2017-04-01T06:47:17.143Z,1005.32
2017-04-01T06:52:14.011Z,1005.36
2017-04-01T06:57:10.751Z,1005.30
2017-04-01T07:02:07.426Z,1005.31
2017-04-01T07:07:04.337Z,1005.23
2017-04-01T07:12:02.426Z,1005.35
2017-04-01T07:16:58.923Z,1005.26
2017-04-01T07:21:55.422Z,1005.32
2017-04-01T07:26:52.685Z,1005.31
2017-04-01T07:31:48.924Z,1005.36
2017-04-01T07:36:45.791Z,1005.34
2017-04-01T07:41:42.530Z,1005.41
2017-04-01T07:46:39.324Z,1005.42
2017-04-01T07:51:36.105Z,1005.31
2017-04-01T07:56:32.739Z,1005.38
2017-04-01T08:01:29.352Z,1005.46
2017-04-01T08:06:26.973Z,1005.38
2017-04-01T08:11:24.246Z,1005.31
2017-04-01T08:16:21.067Z,1005.33
2017-04-01T08:21:18.022Z,1005.32
2017-04-01T08:26:15.432Z,1005.31
2017-04-01T08:31:12.708Z,1005.33
2017-04-01T08:36:09.573Z,1005.41
2017-04-01T08:41:06.510Z,1005.38
2017-04-01T08:46:03.230Z,1005.38
2017-04-01T08:51:02.355Z,1005.42
2017-04-01T08:55:58.796Z,1005.44
2017-04-01T09:00:55.622Z,1005.32
2017-04-01T09:05:52.335Z,1005.38
2017-04-01T09:10:49.627Z,1005.30
2017-04-01T09:15:45.984Z,1005.42
2017-04-01T09:20:42.615Z,1005.42
2017-04-01T09:25:40.528Z,1005.41
2017-04-01T09:30:37.004Z,1005.39
2017-04-01T09:35:36.441Z,1005.47
2017-04-01T09:40:32.557Z,1005.38
2017-04-01T09:45:29.458Z,1005.42
2017-04-01T09:50:28.977Z,1005.36
2017-04-01T09:55:25.360Z,1005.25
2017-04-01T10:00:22.941Z,1005.33
2017-04-01T10:05:19.833Z,1005.26
2017-04-01T10:10:17.353Z,1005.29
2017-04-01T10:15:13.706Z,1005.26
2017-04-01T10:20:10.861Z,1005.20
2017-04-01T10:25:09.203Z,1005.17
2017-04-01T10:30:05.664Z,1005.22
2017-04-01T10:35:02.279Z,1005.33
2017-04-01T10:40:00.626Z,1005.19
2017-04-01T10:44:58.747Z,1005.09
2017-04-01T10:49:54.900Z,1005.03
2017-04-01T10:54:51.212Z,1005.06
2017-04-01T10:59:47.849Z,1005.03
2017-04-01T11:04:45.129Z,1004.92
2017-04-01T11:09:41.913Z,1004.90
2017-04-01T11:14:40.142Z,1005.07
2017-04-01T11:19:36.745Z,1004.95
2017-04-01T11:24:32.991Z,1004.91
2017-04-01T11:29:29.945Z,1004.90
2017-04-01T11:34:30.781Z,1004.91
2017-04-01T11:39:26.995Z,1004.96
2017-04-01T11:44:24.472Z,1005.02
2017-04-01T11:49:22.856Z,1005.00
2017-04-01T11:54:19.895Z,1004.88
2017-04-01T11:59:16.717Z,1004.89
2017-04-01T12:04:12.619Z,1004.98
2017-04-01T12:09:09.030Z,1004.90
2017-04-01T12:14:05.149Z,1004.84
2017-04-01T12:19:01.923Z,1004.87
2017-04-01T12:23:57.996Z,1004.77
2017-04-01T12:28:54.514Z,1004.64
2017-04-01T12:33:50.965Z,1004.72
2017-04-01T12:38:47.805Z,1004.70
2017-04-01T12:43:44.034Z,1004.74
2017-04-01T12:48:42.488Z,1004.70
2017-04-01T12:53:39.251Z,1004.82
2017-04-01T12:58:36.371Z,1004.72
2017-04-01T13:03:33.761Z,1004.66
2017-04-01T13:08:30.373Z,1004.66
2017-04-01T13:13:27.652Z,1004.53
2017-04-01T13:18:23.970Z,1004.40
2017-04-01T13:23:20.772Z,1004.41
2017-04-01T13:28:17.830Z,1004.44
2017-04-01T13:33:15.981Z,1004.37
2017-04-01T13:38:13.232Z,1004.42
2017-04-01T13:43:10.333Z,1004.30
2017-04-01T13:48:07.475Z,1004.36
2017-04-01T13:53:03.839Z,1004.37
2017-04-01T13:58:00.339Z,1004.36
2017-04-01T14:02:58.729Z,1004.34
2017-04-01T14:07:54.938Z,1004.28
2017-04-01T14:12:52.600Z,1004.22
2017-04-01T14:17:50.767Z,1004.26
2017-04-01T14:22:47.445Z,1004.17
2017-04-01T14:27:44.174Z,1004.21
2017-04-01T14:32:40.875Z,1004.29
2017-04-01T14:37:37.449Z,1004.32
2017-04-01T14:42:34.017Z,1004.30
2017-04-01T14:47:31.326Z,1004.42
2017-04-01T14:52:27.703Z,1004.42
2017-04-01T14:57:24.511Z,1004.47
2017-04-01T15:02:21.761Z,1004.47
2017-04-01T15:07:18.320Z,1004.41
2017-04-01T15:12:14.719Z,1004.37
2017-04-01T15:17:10.831Z,1004.39
2017-04-01T15:22:07.083Z,1004.41
2017-04-01T15:27:03.834Z,1004.41
2017-04-01T15:32:00.975Z,1004.53
2017-04-01T15:36:57.833Z,1004.46
2017-04-01T15:41:55.662Z,1004.51
2017-04-01T15:46:52.002Z,1004.58
2017-04-01T15:51:50.704Z,1004.51
2017-04-01T15:56:46.836Z,1004.58
2017-04-01T16:01:43.139Z,1004.51
2017-04-01T16:06:39.784Z,1004.43
2017-04-01T16:11:36.587Z,1004.48
2017-04-01T16:16:33.064Z,1004.47
2017-04-01T16:21:30.449Z,1004.46
2017-04-01T16:26:27.214Z,1004.55
2017-04-01T16:31:23.949Z,1004.61
2017-04-01T16:36:20.610Z,1004.52
2017-04-01T16:41:17.285Z,1004.65
2017-04-01T16:46:14.085Z,1004.57
2017-04-01T16:51:10.769Z,1004.60
2017-04-01T16:56:07.238Z,1004.49
2017-04-01T17:01:03.763Z,1004.56
2017-04-01T17:06:03.791Z,1004.59
2017-04-01T17:10:59.391Z,1004.56
2017-04-01T17:15:56.133Z,1004.59
2017-04-01T17:20:52.373Z,1004.57
2017-04-01T17:25:48.974Z,1004.67
2017-04-01T17:30:46.718Z,1004.73
2017-04-01T17:35:43.777Z,1004.80
2017-04-01T17:40:40.193Z,1004.77
2017-04-01T17:45:37.117Z,1004.88
2017-04-01T17:50:34.910Z,1005.09
2017-04-01T17:55:31.308Z,1005.12
2017-04-01T18:00:28.977Z,1005.28
2017-04-01T18:05:25.128Z,1005.28
2017-04-01T18:10:21.560Z,1005.45
2017-04-01T18:15:18.113Z,1005.51
2017-04-01T18:20:14.343Z,1005.65
2017-04-01T18:25:10.803Z,1005.68
2017-04-01T18:30:08.443Z,1005.69
2017-04-01T18:35:04.684Z,1005.67
2017-04-01T18:40:00.907Z,1005.85
2017-04-01T18:44:58.025Z,1005.97
2017-04-01T18:49:54.665Z,1006.06
2017-04-01T18:54:52.400Z,1006.14
2017-04-01T18:59:49.266Z,1006.24
2017-04-01T19:04:45.677Z,1006.24
2017-04-01T19:09:42.590Z,1006.26
2017-04-01T19:14:39.794Z,1006.28
2017-04-01T19:19:36.415Z,1006.35
2017-04-01T19:24:33.675Z,1006.21
2017-04-01T19:29:30.014Z,1006.31
2017-04-01T19:34:26.696Z,1006.34
2017-04-01T19:39:23.682Z,1006.48
2017-04-01T19:44:22.391Z,1006.64
2017-04-01T19:49:19.084Z,1006.69
2017-04-01T19:54:16.159Z,1006.66
2017-04-01T19:59:12.561Z,1006.66
2017-04-01T20:04:09.324Z,1006.76
2017-04-01T20:09:06.112Z,1006.68
2017-04-01T20:14:02.885Z,1006.66
2017-04-01T20:18:59.184Z,1006.80
2017-04-01T20:23:55.755Z,1006.78
2017-04-01T20:28:52.142Z,1006.80
2017-04-01T20:33:48.468Z,1006.84
2017-04-01T20:38:44.879Z,1006.86
2017-04-01T20:43:41.347Z,1006.93
2017-04-01T20:48:37.956Z,1006.92
2017-04-01T20:53:34.874Z,1006.95
2017-04-01T20:58:31.429Z,1006.87
2017-04-01T21:03:28.792Z,1006.91
2017-04-01T21:08:25.135Z,1006.95
2017-04-01T21:13:21.855Z,1006.85
2017-04-01T21:18:18.357Z,1006.94
2017-04-01T21:23:14.951Z,1006.96
2017-04-01T21:28:11.883Z,1007.08
2017-04-01T21:33:08.258Z,1007.22
2017-04-01T21:38:04.699Z,1007.30
2017-04-01T21:43:01.292Z,1007.29
2017-04-01T21:47:57.794Z,1007.31
2017-04-01T21:52:54.620Z,1007.40
2017-04-01T21:57:51.704Z,1007.39
2017-04-01T22:02:48.147Z,1007.30
2017-04-01T22:07:44.747Z,1007.33
2017-04-01T22:12:41.428Z,1007.41
2017-04-01T22:17:37.646Z,1007.51
2017-04-01T22:22:34.187Z,1007.46
2017-04-01T22:27:30.827Z,1007.52
2017-04-01T22:32:27.613Z,1007.52
2017-04-01T22:37:33.204Z,1007.49
2017-04-01T22:42:30.250Z,1007.53
2017-04-01T22:47:26.570Z,1007.57
2017-04-01T22:52:26.449Z,1007.62
2017-04-01T22:57:22.706Z,1007.59
2017-04-01T23:02:20.036Z,1007.62
2017-04-01T23:07:16.575Z,1007.70
2017-04-01T23:12:12.916Z,1007.65
2017-04-01T23:17:09.983Z,1007.68
2017-04-01T23:22:06.503Z,1007.63
2017-04-01T23:27:03.059Z,1007.63
2017-04-01T23:31:59.620Z,1007.67
2017-04-01T23:36:56.049Z,1007.72
2017-04-01T23:41:53.864Z,1007.71
2017-04-01T23:46:51.623Z,1007.78
2017-04-01T23:51:47.984Z,1007.87
2017-04-01T23:56:47.304Z,1007.82
